createdAt,value
2019-06-26T00:01:00.293Z,89.82
2019-06-26T00:06:09.467Z,91.40
2019-06-26T00:11:18.730Z,87.40
2019-06-26T00:16:28.049Z,82.42
2019-06-26T00:21:37.165Z,87.79
2019-06-26T00:26:46.415Z,80.51
2019-06-26T00:31:55.502Z,87.08
2019-06-26T00:37:04.687Z,87.62
2019-06-26T00:42:13.784Z,82.45
2019-06-26T00:47:22.955Z,81.72
2019-06-26T00:52:32.095Z,89.29
2019-06-26T00:57:41.248Z,86.21
2019-06-26T01:02:50.387Z,84.26
2019-06-26T01:07:59.560Z,86.34
2019-06-26T01:13:09.757Z,87.79
2019-06-26T01:18:08.866Z,91.60
2019-06-26T01:23:18.028Z,82.60
2019-06-26T01:28:27.194Z,78.35
2019-06-26T01:33:36.323Z,83.25
2019-06-26T01:38:45.523Z,80.03
2019-06-26T01:43:54.635Z,73.22
2019-06-26T01:49:03.794Z,72.11
2019-06-26T01:54:12.914Z,84.59
2019-06-26T01:59:22.100Z,80.18
2019-06-26T02:04:31.246Z,80.23
2019-06-26T02:09:40.455Z,85.13
2019-06-26T02:14:49.595Z,85.56
2019-06-26T02:19:58.791Z,99.85
2019-06-26T02:25:07.966Z,96.97
2019-06-26T02:30:17.155Z,102.10
2019-06-26T02:35:26.294Z,99.65
2019-06-26T02:40:35.483Z,102.94
2019-06-26T02:45:44.590Z,102.40
2019-06-26T02:50:53.735Z,94.53
2019-06-26T02:56:02.912Z,103.70
2019-06-26T03:01:12.075Z,98.95
2019-06-26T03:06:21.214Z,91.28
2019-06-26T03:11:30.514Z,90.21
2019-06-26T03:16:39.641Z,97.57
2019-06-26T03:21:48.843Z,91.14
2019-06-26T03:26:57.955Z,89.52
2019-06-26T03:32:07.504Z,79.66
2019-06-26T03:37:15.172Z,73.27
2019-06-26T03:42:24.385Z,73.29
2019-06-26T03:47:33.470Z,72.73
2019-06-26T03:52:42.637Z,71.64
2019-06-26T03:57:51.754Z,71.32
2019-06-26T04:03:00.918Z,71.77
2019-06-26T04:08:10.054Z,73.80
2019-06-26T04:13:19.229Z,71.06
2019-06-26T04:18:28.370Z,70.58
2019-06-26T04:23:37.543Z,78.70
2019-06-26T04:28:46.641Z,81.10
2019-06-26T04:33:55.784Z,82.55
2019-06-26T04:39:04.914Z,98.75
2019-06-26T04:44:14.093Z,102.27
2019-06-26T04:49:23.267Z,94.11
2019-06-26T04:54:32.471Z,89.66
2019-06-26T04:59:41.630Z,70.39
2019-06-26T05:04:51.994Z,67.56
2019-06-26T05:09:51.103Z,71.19
2019-06-26T05:15:00.347Z,80.18
2019-06-26T05:20:09.471Z,98.27
2019-06-26T05:25:18.625Z,100.59
2019-06-26T05:30:27.778Z,102.83
2019-06-26T05:35:36.970Z,95.68
2019-06-26T05:40:46.136Z,105.42
2019-06-26T05:45:55.356Z,88.04
2019-06-26T05:51:04.647Z,88.20
2019-06-26T05:56:13.813Z,82.70
2019-06-26T06:01:22.987Z,99.22
2019-06-26T06:06:41.679Z,96.50
2019-06-26T06:11:40.740Z,88.22
2019-06-26T06:16:50.245Z,92.86
2019-06-26T06:21:59.366Z,93.05
2019-06-26T06:27:08.509Z,97.16
2019-06-26T06:32:17.732Z,93.97
2019-06-26T06:37:26.910Z,95.71
2019-06-26T06:42:36.078Z,86.86
2019-06-26T06:47:45.280Z,87.01
2019-06-26T06:52:54.441Z,87.26
2019-06-26T06:58:03.587Z,108.66
2019-06-26T07:03:12.729Z,119.39
2019-06-26T07:08:21.873Z,99.29
2019-06-26T07:13:31.015Z,90.24
2019-06-26T07:18:40.239Z,93.32
2019-06-26T07:23:49.386Z,83.29
2019-06-26T07:28:58.545Z,83.99
2019-06-26T07:34:07.802Z,88.29
2019-06-26T07:39:16.952Z,92.32
2019-06-26T07:44:26.065Z,90.50
2019-06-26T07:49:35.230Z,86.09
2019-06-26T07:54:44.442Z,95.50
2019-06-26T07:59:53.626Z,95.47
2019-06-26T08:05:02.946Z,92.22
2019-06-26T08:10:12.130Z,88.99
2019-06-26T08:15:21.311Z,94.94
2019-06-26T08:20:30.614Z,91.14
2019-06-26T08:25:39.809Z,90.68
2019-06-26T08:30:49.027Z,86.07
2019-06-26T08:35:58.118Z,82.04
2019-06-26T08:41:08.374Z,85.87
2019-06-26T08:46:07.472Z,87.98
2019-06-26T08:51:16.741Z,93.53
2019-06-26T08:56:25.917Z,90.20
2019-06-26T09:01:35.293Z,83.53
2019-06-26T09:06:44.557Z,84.79
2019-06-26T09:11:53.788Z,83.55
2019-06-26T09:17:03.101Z,85.21
2019-06-26T09:22:13.863Z,85.80
2019-06-26T09:27:15.013Z,84.60
2019-06-26T09:32:21.810Z,85.37
2019-06-26T09:37:31.013Z,81.83
2019-06-26T09:42:41.387Z,84.61
2019-06-26T09:47:40.471Z,84.41
2019-06-26T09:52:49.775Z,75.57
2019-06-26T09:57:58.935Z,73.44
2019-06-26T10:03:08.111Z,69.66
2019-06-26T10:08:17.257Z,66.74
2019-06-26T10:13:26.428Z,70.35
2019-06-26T10:18:35.679Z,68.02
2019-06-26T10:23:45.069Z,72.92
2019-06-26T10:28:54.372Z,72.99
2019-06-26T10:34:03.630Z,74.05
2019-06-26T10:39:12.963Z,68.59
2019-06-26T10:44:22.147Z,68.43
2019-06-26T10:49:31.382Z,64.50
2019-06-26T10:54:44.184Z,63.11
2019-06-26T10:59:49.634Z,59.82
2019-06-26T11:04:58.771Z,59.70
2019-06-26T11:10:08.587Z,50.54
2019-06-26T11:15:16.919Z,50.44
2019-06-26T11:20:26.134Z,49.53
2019-06-26T11:25:35.334Z,48.67
2019-06-26T11:30:44.546Z,49.40
2019-06-26T11:35:53.758Z,45.82
2019-06-26T11:41:03.030Z,47.16
2019-06-26T11:46:12.214Z,50.12
2019-06-26T11:51:21.736Z,47.67
2019-06-26T11:56:32.001Z,42.77
2019-06-26T12:01:31.087Z,45.90
2019-06-26T12:06:40.301Z,39.49
2019-06-26T12:11:49.450Z,40.72
2019-06-26T12:16:58.663Z,42.20
2019-06-26T12:22:07.798Z,41.90
2019-06-26T12:27:16.974Z,37.23
2019-06-26T12:32:26.198Z,35.49
2019-06-26T12:37:37.930Z,36.99
2019-06-26T12:42:44.150Z,34.32
2019-06-26T12:47:53.358Z,36.56
2019-06-26T12:53:02.596Z,37.46
2019-06-26T12:58:13.940Z,46.94
2019-06-26T13:03:20.528Z,46.60
2019-06-26T13:08:29.751Z,49.61
2019-06-26T13:13:39.037Z,46.41
2019-06-26T13:18:48.218Z,49.09
2019-06-26T13:23:57.367Z,46.56
2019-06-26T13:29:09.629Z,48.63
2019-06-26T13:34:15.235Z,44.84
2019-06-26T13:39:24.443Z,45.81
2019-06-26T13:44:33.692Z,47.59
2019-06-26T13:49:42.923Z,41.85
2019-06-26T13:54:52.161Z,42.23
2019-06-26T14:00:01.346Z,34.78
2019-06-26T14:05:10.452Z,32.25
2019-06-26T14:10:19.621Z,28.42
2019-06-26T14:15:28.795Z,29.20
2019-06-26T14:20:37.962Z,26.94
2019-06-26T14:25:47.105Z,21.97
2019-06-26T14:30:56.275Z,23.28
2019-06-26T14:36:05.422Z,21.65
2019-06-26T14:41:14.620Z,21.22
2019-06-26T14:46:23.737Z,19.70
2019-06-26T14:51:46.362Z,16.51
2019-06-26T14:56:41.506Z,19.00
2019-06-26T15:01:50.762Z,21.51
2019-06-26T15:06:59.903Z,21.20
2019-06-26T15:12:09.122Z,23.30
2019-06-26T15:17:18.363Z,22.55
2019-06-26T15:22:27.639Z,19.66
2019-06-26T15:27:36.786Z,23.72
2019-06-26T15:32:45.933Z,21.00
2019-06-26T15:37:55.041Z,21.35
2019-06-26T15:43:04.200Z,21.35
2019-06-26T15:48:13.415Z,16.55
2019-06-26T15:53:22.650Z,17.17
2019-06-26T15:58:31.769Z,17.18
2019-06-26T16:03:41.018Z,16.52
2019-06-26T16:08:50.159Z,17.81
2019-06-26T16:13:59.381Z,15.10
2019-06-26T16:19:08.590Z,14.37
2019-06-26T16:24:17.942Z,15.34
2019-06-26T16:29:27.074Z,12.80
2019-06-26T16:34:36.290Z,12.39
2019-06-26T16:39:45.418Z,12.60
2019-06-26T16:44:54.585Z,12.72
2019-06-26T16:50:03.747Z,13.33
2019-06-26T16:55:12.972Z,11.16
2019-06-26T17:00:22.140Z,10.49
2019-06-26T17:05:31.354Z,10.31
2019-06-26T17:10:40.492Z,8.05
2019-06-26T17:15:49.667Z,8.01
2019-06-26T17:20:58.795Z,8.03
2019-06-26T17:26:08.477Z,8.27
2019-06-26T17:31:17.620Z,7.50
2019-06-26T17:36:28.885Z,7.58
2019-06-26T17:41:35.506Z,9.04
2019-06-26T17:46:44.696Z,10.88
2019-06-26T17:51:53.988Z,7.90
2019-06-26T17:57:04.146Z,8.03
2019-06-26T18:02:03.314Z,6.38
2019-06-26T18:07:12.707Z,5.49
2019-06-26T18:12:21.913Z,5.79
2019-06-26T18:17:31.062Z,4.12
2019-06-26T18:22:40.550Z,4.35
2019-06-26T18:27:49.726Z,5.85
2019-06-26T18:32:58.954Z,4.97
2019-06-26T18:38:08.196Z,3.78
2019-06-26T18:43:17.402Z,4.19
2019-06-26T18:48:26.727Z,4.05
2019-06-26T18:53:35.935Z,4.98
2019-06-26T18:58:45.104Z,3.70
2019-06-26T19:03:54.273Z,3.95
2019-06-26T19:09:03.513Z,6.11
2019-06-26T19:14:12.708Z,4.49
2019-06-26T19:19:21.973Z,3.07
2019-06-26T19:24:31.205Z,4.57
2019-06-26T19:29:40.499Z,5.83
2019-06-26T19:34:49.687Z,4.96
2019-06-26T19:39:59.050Z,4.90
2019-06-26T19:45:08.267Z,5.85
2019-06-26T19:50:17.564Z,5.06
2019-06-26T19:55:26.823Z,7.71
2019-06-26T20:00:36.057Z,7.80
2019-06-26T20:05:47.655Z,7.28
2019-06-26T20:10:46.844Z,5.47
2019-06-26T20:15:57.194Z,6.27
2019-06-26T20:20:56.324Z,6.32
2019-06-26T20:26:05.498Z,9.03
2019-06-26T20:31:14.876Z,6.97
2019-06-26T20:36:24.097Z,7.39
2019-06-26T20:41:33.278Z,6.58
2019-06-26T20:46:42.551Z,6.52
2019-06-26T20:51:51.856Z,8.20
2019-06-26T20:57:01.087Z,7.60
2019-06-26T21:02:10.422Z,6.28
2019-06-26T21:07:19.706Z,7.43
2019-06-26T21:12:29.907Z,8.33
2019-06-26T21:17:29.037Z,8.77
2019-06-26T21:22:38.364Z,8.10
2019-06-26T21:27:47.595Z,7.26
2019-06-26T21:32:56.775Z,8.81
2019-06-26T21:38:05.967Z,8.44
2019-06-26T21:43:15.223Z,8.10
2019-06-26T21:48:24.414Z,8.78
2019-06-26T21:53:33.662Z,9.57
2019-06-26T21:58:42.958Z,7.52
2019-06-26T22:03:52.142Z,8.50
2019-06-26T22:09:01.389Z,8.51
2019-06-26T22:14:10.631Z,11.51
2019-06-26T22:19:19.839Z,10.31
2019-06-26T22:24:29.168Z,10.18
2019-06-26T22:29:44.238Z,7.87
2019-06-26T22:34:43.371Z,9.84
2019-06-26T22:39:52.547Z,9.35
2019-06-26T22:45:01.899Z,10.51
2019-06-26T22:50:11.020Z,9.80
2019-06-26T22:55:20.343Z,9.23
2019-06-26T23:00:29.570Z,10.40
2019-06-26T23:05:38.818Z,9.34
2019-06-26T23:10:48.075Z,9.55
2019-06-26T23:15:57.322Z,10.36
2019-06-26T23:21:06.471Z,9.88
2019-06-26T23:26:24.122Z,10.47
2019-06-26T23:31:24.542Z,10.39
2019-06-26T23:36:33.675Z,8.84
2019-06-26T23:41:42.931Z,11.13
2019-06-26T23:46:52.275Z,9.92
2019-06-26T23:52:01.412Z,9.63
2019-06-26T23:57:10.720Z,9.62
